createdAt,value
2023-02-19T00:01:53.481Z,88.42
2023-02-19T00:04:39.946Z,88.46
2023-02-19T00:07:26.521Z,88.74
2023-02-19T00:10:13.086Z,88.35
2023-02-19T00:12:59.517Z,87.89
2023-02-19T00:15:46.180Z,87.73
2023-02-19T00:18:32.432Z,87.74
2023-02-19T00:21:19.227Z,87.82
2023-02-19T00:24:07.305Z,87.42
2023-02-19T00:26:53.913Z,87.20
2023-02-19T00:29:40.070Z,86.58
2023-02-19T00:32:26.796Z,86.29
2023-02-19T00:35:13.578Z,86.18
2023-02-19T00:38:00.269Z,85.65
2023-02-19T00:40:46.946Z,85.65
2023-02-19T00:43:35.901Z,85.04
2023-02-19T00:46:35.397Z,84.68
2023-02-19T00:49:23.448Z,84.12
2023-02-19T00:52:10.395Z,84.21
2023-02-19T00:54:56.658Z,84.13
2023-02-19T00:57:43.463Z,84.09
2023-02-19T01:00:30.264Z,84.07
2023-02-19T01:03:16.795Z,84.11
2023-02-19T01:06:05.183Z,84.08
2023-02-19T01:08:52.107Z,83.85
2023-02-19T01:11:39.063Z,83.90
2023-02-19T01:14:25.536Z,83.53
2023-02-19T01:17:12.184Z,83.50
2023-02-19T01:19:58.613Z,83.39
2023-02-19T01:22:45.233Z,83.15
2023-02-19T01:25:31.913Z,82.41
2023-02-19T01:28:18.848Z,81.85
2023-02-19T01:31:07.557Z,81.58
2023-02-19T01:33:59.656Z,81.57
2023-02-19T01:36:46.255Z,81.08
2023-02-19T01:39:33.100Z,81.17
2023-02-19T01:42:19.759Z,81.24
2023-02-19T01:45:33.899Z,81.37
2023-02-19T01:48:32.637Z,81.34
2023-02-19T01:51:21.126Z,81.66
2023-02-19T01:54:09.693Z,81.52
2023-02-19T01:56:57.454Z,81.24
2023-02-19T01:59:44.233Z,81.36
2023-02-19T02:02:30.802Z,81.49
2023-02-19T02:05:32.628Z,81.40
2023-02-19T02:08:38.758Z,81.93
2023-02-19T02:11:25.421Z,82.04
2023-02-19T02:14:12.492Z,82.11
2023-02-19T02:17:09.144Z,82.03
2023-02-19T02:19:55.463Z,81.94
2023-02-19T02:23:21.723Z,82.02
2023-02-19T02:26:52.518Z,82.44
2023-02-19T02:29:58.434Z,82.83
2023-02-19T02:33:08.983Z,82.65
2023-02-19T02:36:03.896Z,82.76
2023-02-19T02:38:54.064Z,83.24
2023-02-19T02:41:46.064Z,83.63
2023-02-19T02:44:37.150Z,83.87
2023-02-19T02:47:42.173Z,84.19
2023-02-19T02:50:43.879Z,84.71
2023-02-19T02:54:00.422Z,85.02
2023-02-19T02:56:50.032Z,85.36
2023-02-19T02:59:39.317Z,85.66
2023-02-19T03:02:30.579Z,85.86
2023-02-19T03:05:41.680Z,86.03
2023-02-19T03:08:45.305Z,86.36
2023-02-19T03:11:52.003Z,86.20
2023-02-19T03:15:02.787Z,86.29
2023-02-19T03:18:11.361Z,86.55
2023-02-19T03:20:59.388Z,87.16
2023-02-19T03:24:06.596Z,87.03
2023-02-19T03:26:54.049Z,86.99
2023-02-19T03:29:43.303Z,87.08
2023-02-19T03:32:50.234Z,87.36
2023-02-19T03:35:41.773Z,87.18
2023-02-19T03:38:37.189Z,87.07
2023-02-19T03:41:44.376Z,87.21
2023-02-19T03:44:57.652Z,86.64
2023-02-19T03:48:23.036Z,86.84
2023-02-19T03:51:24.813Z,86.66
2023-02-19T03:54:32.741Z,86.78
2023-02-19T03:57:25.074Z,86.72
2023-02-19T04:00:21.467Z,86.71
2023-02-19T04:03:31.478Z,86.90
2023-02-19T04:06:29.283Z,86.64
2023-02-19T04:09:17.388Z,87.00
2023-02-19T04:12:05.739Z,87.25
2023-02-19T04:15:00.742Z,87.20
2023-02-19T04:17:50.272Z,86.72
2023-02-19T04:20:42.239Z,87.09
2023-02-19T04:23:33.230Z,87.14
2023-02-19T04:26:22.796Z,87.10
2023-02-19T04:29:09.296Z,87.07
2023-02-19T04:31:56.268Z,87.10
2023-02-19T04:34:42.600Z,86.99
2023-02-19T04:37:29.422Z,87.06
2023-02-19T04:40:16.167Z,87.24
2023-02-19T04:43:03.732Z,87.00
2023-02-19T04:45:50.210Z,87.02
2023-02-19T04:48:38.949Z,86.88
2023-02-19T04:51:25.586Z,86.57
2023-02-19T04:54:12.256Z,86.31
2023-02-19T04:56:58.968Z,86.27
2023-02-19T04:59:47.079Z,86.24
2023-02-19T05:02:33.833Z,86.39
2023-02-19T05:05:20.350Z,86.06
2023-02-19T05:08:07.170Z,86.41
2023-02-19T05:10:58.976Z,86.20
2023-02-19T05:13:45.246Z,86.37
2023-02-19T05:16:33.150Z,86.40
2023-02-19T05:19:19.586Z,86.47
2023-02-19T05:22:06.108Z,86.66
2023-02-19T05:24:52.713Z,86.62
2023-02-19T05:27:40.121Z,86.80
2023-02-19T05:30:26.684Z,87.05
2023-02-19T05:33:14.415Z,86.98
2023-02-19T05:36:06.417Z,87.16
2023-02-19T05:38:57.036Z,87.24
2023-02-19T05:41:45.666Z,87.27
2023-02-19T05:44:32.470Z,87.22
2023-02-19T05:47:19.197Z,87.33
2023-02-19T05:50:07.401Z,87.33
2023-02-19T05:52:54.021Z,87.34
2023-02-19T05:55:40.649Z,87.21
2023-02-19T05:58:28.018Z,87.68
2023-02-19T06:01:16.746Z,87.76
2023-02-19T06:04:03.496Z,87.74
2023-02-19T06:06:50.473Z,87.74
2023-02-19T06:09:36.909Z,87.78
2023-02-19T06:12:24.079Z,87.76
2023-02-19T06:15:10.489Z,87.64
2023-02-19T06:17:57.004Z,87.60
2023-02-19T06:20:43.830Z,87.77
2023-02-19T06:23:32.808Z,87.90
2023-02-19T06:26:22.129Z,87.88
2023-02-19T06:29:08.555Z,87.75
2023-02-19T06:31:55.498Z,87.60
2023-02-19T06:34:41.929Z,87.61
2023-02-19T06:37:29.242Z,87.33
2023-02-19T06:40:16.295Z,87.56
2023-02-19T06:43:02.961Z,87.57
2023-02-19T06:45:49.597Z,87.30
2023-02-19T06:48:36.346Z,86.96
2023-02-19T06:51:24.286Z,86.92
2023-02-19T06:54:10.804Z,86.10
2023-02-19T06:56:59.173Z,85.82
2023-02-19T06:59:46.695Z,85.67
2023-02-19T07:02:33.433Z,86.13
2023-02-19T07:05:20.950Z,86.06
2023-02-19T07:08:07.597Z,85.79
2023-02-19T07:10:56.579Z,85.87
2023-02-19T07:13:42.835Z,86.24
2023-02-19T07:16:29.833Z,86.68
2023-02-19T07:19:16.333Z,86.83
2023-02-19T07:22:02.952Z,87.11
2023-02-19T07:24:49.693Z,87.02
2023-02-19T07:27:36.398Z,86.77
2023-02-19T07:30:22.913Z,86.60
2023-02-19T07:33:10.874Z,86.57
2023-02-19T07:35:57.234Z,86.16
2023-02-19T07:38:47.207Z,86.23
2023-02-19T07:41:34.228Z,86.39
2023-02-19T07:44:20.795Z,86.01
2023-02-19T07:47:08.277Z,86.05
2023-02-19T07:49:54.885Z,86.02
2023-02-19T07:52:41.758Z,85.91
2023-02-19T07:55:28.378Z,85.06
2023-02-19T07:58:15.246Z,84.86
2023-02-19T08:01:11.579Z,84.47
2023-02-19T08:03:58.714Z,84.37
2023-02-19T08:06:45.515Z,83.25
2023-02-19T08:09:32.306Z,82.11
2023-02-19T08:12:37.570Z,81.98
2023-02-19T08:15:24.061Z,81.17
2023-02-19T08:18:14.105Z,81.31
2023-02-19T08:21:00.890Z,81.54
2023-02-19T08:23:50.603Z,81.38
2023-02-19T08:26:37.612Z,81.20
2023-02-19T08:29:23.993Z,81.08
2023-02-19T08:32:10.418Z,81.02
2023-02-19T08:34:57.128Z,80.87
2023-02-19T08:37:43.930Z,80.92
2023-02-19T08:40:30.927Z,80.92
2023-02-19T08:43:17.719Z,80.66
2023-02-19T08:46:04.673Z,80.11
2023-02-19T08:48:51.454Z,80.10
2023-02-19T08:51:37.896Z,79.85
2023-02-19T08:54:24.795Z,80.41
2023-02-19T08:57:11.320Z,80.57
2023-02-19T09:00:01.190Z,80.35
2023-02-19T09:02:49.031Z,80.36
2023-02-19T09:05:35.801Z,80.02
2023-02-19T09:08:22.339Z,79.93
2023-02-19T09:11:08.928Z,80.12
2023-02-19T09:13:56.758Z,79.34
2023-02-19T09:16:53.628Z,79.14
2023-02-19T09:19:40.267Z,79.55
2023-02-19T09:22:27.000Z,79.42
2023-02-19T09:25:13.563Z,79.01
2023-02-19T09:28:00.290Z,78.97
2023-02-19T09:30:46.542Z,79.18
2023-02-19T09:33:33.417Z,78.76
2023-02-19T09:36:20.107Z,77.63
2023-02-19T09:39:08.997Z,77.60
2023-02-19T09:42:04.215Z,77.40
2023-02-19T09:44:54.202Z,76.60
2023-02-19T09:47:40.488Z,76.62
2023-02-19T09:50:34.467Z,76.47
2023-02-19T09:53:27.328Z,76.34
2023-02-19T09:56:14.016Z,75.69
2023-02-19T09:59:02.077Z,74.44
2023-02-19T10:01:53.455Z,74.10
2023-02-19T10:04:42.365Z,72.01
2023-02-19T10:07:39.401Z,70.33
2023-02-19T10:10:33.089Z,66.94
2023-02-19T10:13:29.658Z,65.20
2023-02-19T10:16:22.504Z,58.88
2023-02-19T10:19:16.374Z,57.42
2023-02-19T10:22:03.726Z,53.50
2023-02-19T10:24:54.046Z,53.26
2023-02-19T10:27:41.101Z,54.84
2023-02-19T10:30:31.713Z,56.32
2023-02-19T10:33:19.394Z,59.64
2023-02-19T10:36:07.862Z,60.14
2023-02-19T10:38:55.097Z,61.40
2023-02-19T10:41:44.105Z,62.33
2023-02-19T10:44:45.492Z,61.54
2023-02-19T10:47:33.029Z,62.16
2023-02-19T10:50:39.293Z,62.22
2023-02-19T10:53:44.086Z,57.94
2023-02-19T10:56:31.507Z,54.07
2023-02-19T10:59:18.004Z,53.02
2023-02-19T11:02:17.330Z,51.91
2023-02-19T11:05:09.738Z,52.63
2023-02-19T11:07:57.219Z,54.71
2023-02-19T11:10:48.927Z,56.58
2023-02-19T11:13:38.063Z,57.31
2023-02-19T11:16:38.446Z,57.20
2023-02-19T11:19:31.562Z,57.14
2023-02-19T11:22:38.050Z,57.75
2023-02-19T11:25:25.847Z,57.69
2023-02-19T11:28:35.963Z,59.37
2023-02-19T11:31:31.988Z,58.78
2023-02-19T11:34:21.168Z,59.37
2023-02-19T11:38:03.794Z,59.76
2023-02-19T11:41:47.312Z,60.06
2023-02-19T11:45:03.847Z,59.91
2023-02-19T11:48:15.070Z,60.77
2023-02-19T11:51:28.550Z,60.27
2023-02-19T11:54:25.442Z,59.76
2023-02-19T11:57:48.560Z,58.87
2023-02-19T12:00:48.961Z,54.36
2023-02-19T12:04:25.024Z,51.85
2023-02-19T12:07:35.294Z,48.36
2023-02-19T12:10:43.102Z,46.90
2023-02-19T12:13:38.469Z,46.69
2023-02-19T12:16:41.441Z,48.31
2023-02-19T12:19:42.272Z,49.79
2023-02-19T12:22:44.283Z,49.39
2023-02-19T12:25:55.501Z,48.52
2023-02-19T12:29:00.930Z,49.88
2023-02-19T12:31:54.280Z,53.00
2023-02-19T12:35:19.731Z,55.53
2023-02-19T12:38:25.103Z,56.94
2023-02-19T12:41:30.513Z,57.77
2023-02-19T12:44:24.110Z,59.22
2023-02-19T12:47:29.875Z,59.79
2023-02-19T12:50:28.022Z,60.29
2023-02-19T12:53:15.155Z,60.57
2023-02-19T12:56:09.184Z,61.33
2023-02-19T12:59:17.923Z,60.55
2023-02-19T13:02:10.884Z,55.91
2023-02-19T13:05:23.709Z,50.02
2023-02-19T13:09:05.730Z,47.93
2023-02-19T13:12:16.733Z,44.87
2023-02-19T13:15:17.964Z,43.40
2023-02-19T13:18:12.985Z,43.66
2023-02-19T13:21:38.670Z,43.59
2023-02-19T13:24:44.915Z,42.78
2023-02-19T13:28:10.738Z,41.46
2023-02-19T13:31:25.664Z,40.17
2023-02-19T13:34:33.859Z,41.58
2023-02-19T13:37:21.791Z,40.11
2023-02-19T13:40:33.448Z,42.44
2023-02-19T13:43:37.059Z,45.27
2023-02-19T13:46:25.665Z,48.14
2023-02-19T13:49:31.648Z,48.85
2023-02-19T13:52:30.515Z,49.34
2023-02-19T13:55:52.056Z,51.24
2023-02-19T13:58:52.814Z,52.73
2023-02-19T14:01:51.521Z,52.81
2023-02-19T14:04:41.321Z,52.83
2023-02-19T14:07:27.898Z,49.66
2023-02-19T14:10:46.076Z,50.04
2023-02-19T14:13:51.541Z,52.28
2023-02-19T14:16:38.059Z,54.04
2023-02-19T14:19:42.990Z,54.36
2023-02-19T14:22:45.005Z,55.90
2023-02-19T14:25:45.567Z,55.51
2023-02-19T14:28:45.901Z,55.85
2023-02-19T14:31:36.556Z,55.02
2023-02-19T14:34:27.040Z,54.91
2023-02-19T14:37:19.789Z,55.67
2023-02-19T14:40:06.344Z,55.44
2023-02-19T14:42:57.266Z,55.58
2023-02-19T14:45:54.462Z,54.85
2023-02-19T14:48:46.782Z,55.87
2023-02-19T14:51:38.095Z,56.20
2023-02-19T14:54:38.530Z,56.00
2023-02-19T14:57:29.687Z,56.43
2023-02-19T15:00:28.958Z,56.28
2023-02-19T15:03:35.895Z,57.15
2023-02-19T15:06:24.430Z,57.61
2023-02-19T15:09:16.867Z,57.34
2023-02-19T15:12:04.040Z,57.29
2023-02-19T15:14:54.865Z,57.16
2023-02-19T15:17:41.813Z,57.47
2023-02-19T15:20:32.802Z,58.22
2023-02-19T15:23:25.284Z,57.93
2023-02-19T15:26:21.263Z,58.00
2023-02-19T15:29:16.969Z,58.00
2023-02-19T15:32:21.855Z,58.04
2023-02-19T15:35:19.923Z,57.53
2023-02-19T15:38:12.457Z,57.60
2023-02-19T15:40:59.303Z,58.51
2023-02-19T15:44:01.642Z,57.85
2023-02-19T15:46:48.730Z,57.76
2023-02-19T15:49:49.992Z,58.32
2023-02-19T15:52:45.854Z,58.29
2023-02-19T15:56:00.428Z,58.10
2023-02-19T15:59:12.858Z,58.43
2023-02-19T16:02:00.976Z,59.00
2023-02-19T16:04:47.327Z,59.34
2023-02-19T16:07:34.101Z,59.84
2023-02-19T16:10:24.589Z,59.28
2023-02-19T16:13:12.061Z,59.68
2023-02-19T16:16:16.056Z,60.05
2023-02-19T16:19:03.013Z,60.65
2023-02-19T16:21:49.663Z,61.10
2023-02-19T16:24:45.084Z,61.77
2023-02-19T16:27:38.505Z,61.39
2023-02-19T16:30:31.593Z,61.89
2023-02-19T16:33:36.661Z,61.73
2023-02-19T16:36:23.171Z,62.33
2023-02-19T16:39:09.792Z,61.86
2023-02-19T16:41:59.482Z,61.67
2023-02-19T16:44:46.853Z,62.02
2023-02-19T16:47:40.527Z,61.98
2023-02-19T16:50:29.192Z,61.87
2023-02-19T16:53:25.277Z,62.02
2023-02-19T16:56:18.634Z,61.58
2023-02-19T16:59:05.110Z,61.04
2023-02-19T17:01:51.861Z,61.29
2023-02-19T17:04:38.200Z,60.94
2023-02-19T17:07:26.530Z,60.28
2023-02-19T17:10:17.316Z,60.31
2023-02-19T17:13:05.019Z,60.55
2023-02-19T17:15:51.498Z,59.86
2023-02-19T17:18:38.024Z,59.57
2023-02-19T17:21:26.882Z,59.48
2023-02-19T17:24:14.055Z,59.59
2023-02-19T17:27:00.425Z,58.85
2023-02-19T17:29:46.834Z,59.34
2023-02-19T17:32:33.575Z,58.78
2023-02-19T17:35:20.171Z,58.94
2023-02-19T17:38:09.684Z,59.18
2023-02-19T17:40:56.368Z,59.24
2023-02-19T17:43:42.910Z,58.98
2023-02-19T17:46:29.597Z,59.01
2023-02-19T17:49:16.409Z,58.50
2023-02-19T17:52:05.520Z,58.64
2023-02-19T17:54:52.043Z,58.04
2023-02-19T17:57:38.675Z,57.95
2023-02-19T18:00:28.297Z,58.09
2023-02-19T18:03:14.509Z,58.13
2023-02-19T18:06:00.919Z,58.04
2023-02-19T18:08:52.703Z,58.10
2023-02-19T18:11:39.413Z,57.20
2023-02-19T18:14:45.819Z,57.91
2023-02-19T18:17:32.488Z,58.24
2023-02-19T18:20:28.164Z,58.26
2023-02-19T18:23:14.674Z,58.31
2023-02-19T18:26:01.577Z,58.55
2023-02-19T18:28:48.257Z,59.31
2023-02-19T18:31:37.459Z,58.51
2023-02-19T18:34:23.733Z,58.14
2023-02-19T18:37:10.473Z,57.76
2023-02-19T18:39:58.008Z,57.63
2023-02-19T18:42:44.457Z,57.75
2023-02-19T18:45:35.247Z,57.23
2023-02-19T18:48:21.499Z,57.64
2023-02-19T18:51:11.628Z,57.31
2023-02-19T18:54:01.731Z,57.42
2023-02-19T18:56:48.230Z,57.91
2023-02-19T18:59:35.844Z,57.71
2023-02-19T19:02:22.436Z,57.91
2023-02-19T19:05:09.206Z,58.25
2023-02-19T19:07:57.613Z,58.73
2023-02-19T19:10:44.285Z,58.56
2023-02-19T19:13:30.970Z,57.98
2023-02-19T19:16:18.666Z,57.60
2023-02-19T19:19:05.163Z,57.68
2023-02-19T19:21:53.486Z,58.12
2023-02-19T19:24:39.840Z,57.76
2023-02-19T19:27:25.996Z,57.51
2023-02-19T19:30:13.055Z,57.40
2023-02-19T19:33:01.594Z,57.67
2023-02-19T19:35:48.238Z,57.21
2023-02-19T19:38:34.925Z,57.77
2023-02-19T19:41:21.593Z,58.37
2023-02-19T19:44:09.446Z,58.78
2023-02-19T19:46:56.472Z,58.51
2023-02-19T19:49:46.107Z,58.60
2023-02-19T19:52:32.591Z,58.85
2023-02-19T19:55:21.665Z,59.11
2023-02-19T19:58:08.263Z,59.29
2023-02-19T20:00:54.967Z,59.87
2023-02-19T20:03:41.456Z,59.43
2023-02-19T20:06:30.900Z,59.62
2023-02-19T20:09:18.052Z,59.72
2023-02-19T20:12:04.952Z,60.64
2023-02-19T20:14:51.419Z,59.82
2023-02-19T20:17:38.514Z,59.34
2023-02-19T20:20:24.946Z,59.61
2023-02-19T20:23:11.594Z,60.09
2023-02-19T20:25:58.188Z,60.76
2023-02-19T20:28:47.648Z,60.82
2023-02-19T20:31:34.403Z,60.75
2023-02-19T20:34:23.573Z,61.05
2023-02-19T20:37:10.595Z,60.73
2023-02-19T20:39:56.633Z,60.57
2023-02-19T20:42:43.415Z,60.74
2023-02-19T20:45:30.931Z,60.35
2023-02-19T20:48:18.011Z,60.56
2023-02-19T20:51:05.435Z,60.70
2023-02-19T21:00:55.162Z,61.41
2023-02-19T21:03:40.298Z,61.99
2023-02-19T21:06:25.369Z,62.07
2023-02-19T21:09:10.738Z,62.05
2023-02-19T21:11:56.114Z,62.35
2023-02-19T21:14:41.140Z,62.05
2023-02-19T21:17:26.272Z,62.39
2023-02-19T21:20:12.170Z,62.58
2023-02-19T21:22:57.442Z,62.58
2023-02-19T21:25:42.684Z,62.41
2023-02-19T21:28:27.848Z,62.68
2023-02-19T21:31:13.113Z,62.56
2023-02-19T21:33:58.514Z,62.62
2023-02-19T21:36:44.135Z,62.96
2023-02-19T21:39:30.575Z,63.09
2023-02-19T21:42:15.440Z,63.32
2023-02-19T21:45:00.392Z,63.57
2023-02-19T21:47:45.537Z,63.69
2023-02-19T21:50:30.383Z,63.75
2023-02-19T21:53:15.801Z,64.05
2023-02-19T21:56:00.807Z,64.45
2023-02-19T21:58:46.122Z,64.64
2023-02-19T22:01:39.188Z,64.61
2023-02-19T22:04:24.445Z,64.95
2023-02-19T22:07:09.724Z,65.01
2023-02-19T22:09:54.925Z,65.19
2023-02-19T22:12:39.863Z,65.08
2023-02-19T22:15:24.893Z,65.19
2023-02-19T22:18:09.809Z,65.21
2023-02-19T22:20:55.033Z,65.32
2023-02-19T22:23:43.709Z,65.47
2023-02-19T22:26:31.791Z,65.59
2023-02-19T22:29:17.067Z,65.64
2023-02-19T22:32:02.563Z,65.82
2023-02-19T22:34:47.690Z,65.92
2023-02-19T22:37:32.903Z,65.57
2023-02-19T22:40:20.318Z,65.81
2023-02-19T22:43:05.588Z,65.93
2023-02-19T22:45:50.824Z,66.27
2023-02-19T22:48:36.082Z,66.43
2023-02-19T22:51:23.448Z,66.57
2023-02-19T22:54:09.074Z,66.69
2023-02-19T22:56:55.279Z,66.92
2023-02-19T22:59:40.505Z,67.01
2023-02-19T23:02:25.677Z,67.04
2023-02-19T23:05:10.919Z,67.07
2023-02-19T23:07:55.836Z,67.39
2023-02-19T23:10:40.988Z,67.54
2023-02-19T23:13:26.177Z,67.65
2023-02-19T23:16:12.097Z,67.87
2023-02-19T23:18:57.242Z,68.18
2023-02-19T23:21:44.034Z,68.19
2023-02-19T23:24:29.353Z,68.51
2023-02-19T23:27:14.507Z,69.06
2023-02-19T23:29:59.701Z,69.18
2023-02-19T23:32:44.809Z,69.89
2023-02-19T23:35:31.224Z,70.62
2023-02-19T23:38:16.597Z,70.82
2023-02-19T23:41:02.168Z,71.53
2023-02-19T23:43:49.714Z,72.83
2023-02-19T23:46:34.951Z,74.79
2023-02-19T23:49:20.619Z,77.02
2023-02-19T23:52:05.816Z,78.04
2023-02-19T23:54:50.941Z,78.72
2023-02-19T23:57:36.064Z,79.20
